Alverda, Pennsylvania
Current Conditions -  °F | °C
As of 3:35 PM on Thursday 27 Nov 2014 (Local Time) from KIDI Reporting Station
Haze Haze  
Wind Chill: 29°   Ceiling: 3700
Heat Index: 34°   Visibility: 5mi
Dew Point: 30°   Wind: 6mph
Humidity: 87%   Direction: 320°NW
Pressure: 30.08"   Gusts: NA
Location:  40.63°N, 78.86°W
Report Text: KIDI 272035Z AUTO 32005KT 5SM BR FEW026 BKN037 OVC046 01/M01 A3008 RMK A01
Loading
Personal Weather Stations






























Interactive Weather Map New forecast layout! Learn more

10-Day Weather Forecast

Advertisements
Track Severe Weather on mobile